SMR225 UTDD-UZTT
Flight info
| Callsign | SMR225 |
|---|---|
| Flight time | 0h 37m |
| Altitude | 25000 |
| Route | PUGU1J SX A353 ASBUG/K0820F320 Z753 KUFIM KUFIM2W |
| Aircraft | B738/M-SDGIJ1LRWY/SB1 |
Departure
| Time | 2026-05-04 17:23 |
|---|---|
| Airport | Dushanbe International Airport (UTDD) |
Arrival
| Time | 2026-05-04 18:00 |
|---|---|
| Airport | Tashkent International Airport (UZTT) |
| Time | Latitude | Longitude | Altitude | Speed | Heading |
|---|---|---|---|---|---|
| 2026-05-04 16:55 | 38.54776 | 68.81280 | 2596 ft | 0 kts | 0° |
| 2026-05-04 17:15 | 38.54765 | 68.81280 | 2596 ft | 2 kts | 0° |
| 2026-05-04 17:15 | 38.54734 | 68.81280 | 2595 ft | 2 kts | 0° |
| 2026-05-04 17:16 | 38.54705 | 68.81279 | 2595 ft | 2 kts | 358° |
| 2026-05-04 17:16 | 38.54686 | 68.81323 | 2595 ft | 2 kts | 270° |
| 2026-05-04 17:17 | 38.54685 | 68.81342 | 2595 ft | 1 kts | 271° |
| 2026-05-04 17:17 | 38.54685 | 68.81345 | 2595 ft | 0 kts | 270° |
| 2026-05-04 17:18 | 38.54685 | 68.81336 | 2595 ft | 3 kts | 270° |
| 2026-05-04 17:19 | 38.54685 | 68.81194 | 2595 ft | 12 kts | 270° |
| 2026-05-04 17:19 | 38.54686 | 68.80888 | 2595 ft | 17 kts | 271° |
| 2026-05-04 17:20 | 38.54664 | 68.80669 | 2595 ft | 8 kts | 193° |
| 2026-05-04 17:20 | 38.54547 | 68.80670 | 2594 ft | 7 kts | 181° |
| 2026-05-04 17:20 | 38.54494 | 68.80667 | 2594 ft | 7 kts | 181° |
| 2026-05-04 17:21 | 38.54396 | 68.80665 | 2594 ft | 6 kts | 176° |
| 2026-05-04 17:21 | 38.54373 | 68.80702 | 2594 ft | 0 kts | 91° |
| 2026-05-04 17:22 | 38.54373 | 68.80768 | 2594 ft | 33 kts | 90° |
| 2026-05-04 17:22 | 38.54372 | 68.81395 | 2594 ft | 105 kts | 90° |
| 2026-05-04 17:23 | 38.54342 | 68.85558 | 3893 ft | 171 kts | 89° |
| 2026-05-04 17:23 | 38.54334 | 68.87071 | 4593 ft | 170 kts | 89° |
| 2026-05-04 17:23 | 38.54331 | 68.90073 | 5825 ft | 169 kts | 89° |
| 2026-05-04 17:24 | 38.54319 | 68.91631 | 6233 ft | 183 kts | 90° |
| 2026-05-04 17:24 | 38.51574 | 68.94244 | 7618 ft | 213 kts | 208° |
| 2026-05-04 17:25 | 38.50610 | 68.92882 | 8190 ft | 214 kts | 252° |
| 2026-05-04 17:25 | 38.51654 | 68.89740 | 9452 ft | 211 kts | 338° |
| 2026-05-04 17:26 | 38.54637 | 68.89030 | 10485 ft | 233 kts | 353° |
| 2026-05-04 17:26 | 38.59821 | 68.88124 | 12244 ft | 266 kts | 354° |
| 2026-05-04 17:27 | 38.63544 | 68.87624 | 13809 ft | 275 kts | 355° |
| 2026-05-04 17:27 | 38.67317 | 68.87087 | 15565 ft | 275 kts | 353° |
| 2026-05-04 17:28 | 38.71122 | 68.86535 | 17141 ft | 279 kts | 352° |
| 2026-05-04 17:29 | 38.76939 | 68.85687 | 19343 ft | 290 kts | 352° |
| 2026-05-04 17:29 | 38.83861 | 68.84818 | 19352 ft | 371 kts | 357° |
| 2026-05-04 17:30 | 38.91609 | 68.85886 | 21793 ft | 375 kts | 8° |
| 2026-05-04 17:31 | 38.96795 | 68.87046 | 23239 ft | 380 kts | 8° |
| 2026-05-04 17:31 | 39.04475 | 68.88702 | 25312 ft | 378 kts | 7° |
| 2026-05-04 17:32 | 39.09670 | 68.89787 | 25367 ft | 372 kts | 7° |
| 2026-05-04 17:33 | 39.17238 | 68.91363 | 25364 ft | 367 kts | 6° |
| 2026-05-04 17:33 | 39.19748 | 68.91886 | 25373 ft | 368 kts | 6° |
| 2026-05-04 17:34 | 39.27378 | 68.93474 | 25368 ft | 369 kts | 7° |
| 2026-05-04 17:34 | 39.29894 | 68.93999 | 25364 ft | 370 kts | 7° |
| 2026-05-04 17:35 | 39.37490 | 68.95589 | 25328 ft | 367 kts | 7° |
| 2026-05-04 17:35 | 39.42530 | 68.96643 | 25329 ft | 368 kts | 7° |
| 2026-05-04 17:35 | 39.45078 | 68.97175 | 25319 ft | 368 kts | 7° |
| 2026-05-04 17:36 | 39.47584 | 68.97701 | 25323 ft | 367 kts | 7° |
| 2026-05-04 17:36 | 39.50128 | 68.98234 | 25310 ft | 368 kts | 7° |
| 2026-05-04 17:36 | 39.52637 | 68.98757 | 25288 ft | 369 kts | 7° |
| 2026-05-04 17:36 | 39.55179 | 68.99287 | 25276 ft | 369 kts | 7° |
| 2026-05-04 17:37 | 39.57731 | 68.99782 | 25288 ft | 368 kts | 6° |
| 2026-05-04 17:37 | 39.60254 | 69.00214 | 25284 ft | 369 kts | 5° |
| 2026-05-04 17:37 | 39.62811 | 69.00626 | 25273 ft | 368 kts | 5° |
| 2026-05-04 17:37 | 39.65340 | 69.01027 | 25260 ft | 368 kts | 5° |
| 2026-05-04 17:38 | 39.67871 | 69.01434 | 25252 ft | 368 kts | 5° |
| 2026-05-04 17:38 | 39.70410 | 69.01846 | 25232 ft | 369 kts | 5° |
| 2026-05-04 17:38 | 39.72979 | 69.02270 | 25220 ft | 368 kts | 5° |
| 2026-05-04 17:38 | 39.75507 | 69.02689 | 25206 ft | 368 kts | 5° |
| 2026-05-04 17:39 | 39.80589 | 69.03538 | 25158 ft | 369 kts | 5° |
| 2026-05-04 17:39 | 39.83159 | 69.03970 | 25150 ft | 370 kts | 5° |
| 2026-05-04 17:39 | 39.85699 | 69.04394 | 25161 ft | 371 kts | 5° |
| 2026-05-04 17:40 | 39.88279 | 69.04823 | 25128 ft | 372 kts | 5° |
| 2026-05-04 17:40 | 39.90790 | 69.05243 | 25106 ft | 361 kts | 5° |
| 2026-05-04 17:40 | 39.93276 | 69.05660 | 25112 ft | 357 kts | 5° |
| 2026-05-04 17:40 | 39.95743 | 69.06074 | 25098 ft | 364 kts | 5° |
| 2026-05-04 17:41 | 39.98289 | 69.06502 | 25088 ft | 369 kts | 5° |
| 2026-05-04 17:41 | 40.00821 | 69.06926 | 25068 ft | 371 kts | 5° |
| 2026-05-04 17:41 | 40.03405 | 69.07359 | 25068 ft | 371 kts | 5° |
| 2026-05-04 17:41 | 40.05953 | 69.07787 | 25066 ft | 371 kts | 6° |
| 2026-05-04 17:42 | 40.08497 | 69.08215 | 25057 ft | 371 kts | 6° |
| 2026-05-04 17:42 | 40.11090 | 69.08652 | 25055 ft | 371 kts | 6° |
| 2026-05-04 17:42 | 40.13647 | 69.09084 | 25043 ft | 369 kts | 6° |
| 2026-05-04 17:42 | 40.16171 | 69.09464 | 25037 ft | 360 kts | 3° |
| 2026-05-04 17:43 | 40.18646 | 69.09518 | 24888 ft | 348 kts | 354° |
| 2026-05-04 17:43 | 40.20982 | 69.08962 | 24581 ft | 341 kts | 343° |
| 2026-05-04 17:43 | 40.23291 | 69.08247 | 24094 ft | 339 kts | 354° |
| 2026-05-04 17:43 | 40.25616 | 69.07999 | 23681 ft | 335 kts | 352° |
| 2026-05-04 17:44 | 40.27871 | 69.07416 | 23232 ft | 332 kts | 346° |
| 2026-05-04 17:44 | 40.30101 | 69.06622 | 22779 ft | 330 kts | 344° |
| 2026-05-04 17:44 | 40.32285 | 69.05777 | 22321 ft | 329 kts | 343° |
| 2026-05-04 17:44 | 40.34490 | 69.04890 | 21864 ft | 331 kts | 342° |
| 2026-05-04 17:45 | 40.36704 | 69.03979 | 21404 ft | 340 kts | 342° |
| 2026-05-04 17:45 | 40.38985 | 69.03048 | 20914 ft | 349 kts | 342° |
| 2026-05-04 17:45 | 40.41333 | 69.02106 | 20416 ft | 349 kts | 342° |
| 2026-05-04 17:45 | 40.43652 | 69.01187 | 19938 ft | 347 kts | 343° |
| 2026-05-04 17:46 | 40.45938 | 69.00286 | 19455 ft | 345 kts | 343° |
| 2026-05-04 17:46 | 40.48236 | 68.99384 | 18984 ft | 343 kts | 343° |
| 2026-05-04 17:46 | 40.50494 | 68.98497 | 18516 ft | 342 kts | 344° |
| 2026-05-04 17:46 | 40.52815 | 68.97877 | 18130 ft | 336 kts | 355° |
| 2026-05-04 17:47 | 40.55131 | 68.97817 | 17705 ft | 334 kts | 2° |
| 2026-05-04 17:47 | 40.57438 | 68.97984 | 17199 ft | 334 kts | 5° |
| 2026-05-04 17:47 | 40.59772 | 68.98171 | 16698 ft | 333 kts | 4° |
| 2026-05-04 17:47 | 40.62061 | 68.98298 | 16209 ft | 333 kts | 2° |
| 2026-05-04 17:48 | 40.64395 | 68.98370 | 15708 ft | 333 kts | 1° |
| 2026-05-04 17:48 | 40.66692 | 68.98407 | 15220 ft | 333 kts | 0° |
| 2026-05-04 17:48 | 40.69027 | 68.98429 | 14724 ft | 333 kts | 0° |
| 2026-05-04 17:48 | 40.71327 | 68.98446 | 14235 ft | 332 kts | 360° |
| 2026-05-04 17:49 | 40.73628 | 68.98463 | 13751 ft | 332 kts | 360° |
| 2026-05-04 17:49 | 40.75916 | 68.98481 | 13260 ft | 331 kts | 360° |
| 2026-05-04 17:49 | 40.78234 | 68.98500 | 12763 ft | 331 kts | 360° |
| 2026-05-04 17:49 | 40.80523 | 68.98522 | 12274 ft | 330 kts | 360° |
| 2026-05-04 17:50 | 40.82832 | 68.98545 | 11765 ft | 329 kts | 0° |
| 2026-05-04 17:50 | 40.85094 | 68.98567 | 11278 ft | 325 kts | 0° |
| 2026-05-04 17:50 | 40.87338 | 68.98589 | 10787 ft | 320 kts | 0° |
| 2026-05-04 17:50 | 40.89525 | 68.98611 | 10298 ft | 315 kts | 0° |
| 2026-05-04 17:51 | 40.91689 | 68.98631 | 9808 ft | 310 kts | 360° |
| 2026-05-04 17:51 | 40.93182 | 68.98646 | 9470 ft | 308 kts | 360° |
| 2026-05-04 17:51 | 40.95314 | 68.98666 | 8986 ft | 304 kts | 360° |
| 2026-05-04 17:51 | 40.97401 | 68.98687 | 8501 ft | 300 kts | 360° |
| 2026-05-04 17:52 | 40.99469 | 68.98708 | 8052 ft | 294 kts | 360° |
| 2026-05-04 17:52 | 41.01479 | 68.98727 | 7687 ft | 286 kts | 360° |
| 2026-05-04 17:52 | 41.03439 | 68.98746 | 7350 ft | 278 kts | 360° |
| 2026-05-04 17:52 | 41.05348 | 68.98764 | 7009 ft | 271 kts | 360° |
| 2026-05-04 17:53 | 41.07233 | 68.98782 | 6670 ft | 265 kts | 360° |
| 2026-05-04 17:53 | 41.09040 | 68.98800 | 6379 ft | 259 kts | 360° |
| 2026-05-04 17:53 | 41.10861 | 68.98818 | 6046 ft | 259 kts | 360° |
| 2026-05-04 17:53 | 41.12662 | 68.98836 | 5728 ft | 257 kts | 0° |
| 2026-05-04 17:54 | 41.14429 | 68.98852 | 5415 ft | 256 kts | 0° |
| 2026-05-04 17:54 | 41.16212 | 68.98869 | 5083 ft | 253 kts | 0° |
| 2026-05-04 17:54 | 41.17947 | 68.98886 | 4775 ft | 248 kts | 1° |
| 2026-05-04 17:54 | 41.19672 | 68.98940 | 4459 ft | 243 kts | 6° |
| 2026-05-04 17:55 | 41.21265 | 68.99435 | 4186 ft | 236 kts | 29° |
| 2026-05-04 17:55 | 41.22433 | 69.00897 | 3972 ft | 228 kts | 62° |
| 2026-05-04 17:55 | 41.22922 | 69.02860 | 3768 ft | 223 kts | 81° |
| 2026-05-04 17:55 | 41.23103 | 69.04874 | 3616 ft | 215 kts | 83° |
| 2026-05-04 17:56 | 41.23284 | 69.06792 | 3469 ft | 207 kts | 81° |
| 2026-05-04 17:56 | 41.23483 | 69.08636 | 3379 ft | 193 kts | 81° |
| 2026-05-04 17:56 | 41.23668 | 69.10304 | 3252 ft | 174 kts | 81° |
| 2026-05-04 17:56 | 41.23834 | 69.11792 | 3190 ft | 152 kts | 81° |
| 2026-05-04 17:57 | 41.23985 | 69.13141 | 3064 ft | 143 kts | 81° |
| 2026-05-04 17:57 | 41.24027 | 69.13512 | 3040 ft | 142 kts | 81° |
| 2026-05-04 17:57 | 41.24077 | 69.13966 | 3009 ft | 143 kts | 81° |
| 2026-05-04 17:58 | 41.24218 | 69.15272 | 2934 ft | 144 kts | 81° |
| 2026-05-04 17:58 | 41.24366 | 69.16592 | 2808 ft | 145 kts | 81° |
| 2026-05-04 17:58 | 41.24510 | 69.17918 | 2672 ft | 145 kts | 80° |
| 2026-05-04 17:58 | 41.24677 | 69.19238 | 2479 ft | 146 kts | 79° |
| 2026-05-04 17:59 | 41.24831 | 69.20579 | 2290 ft | 145 kts | 79° |
| 2026-05-04 17:59 | 41.24970 | 69.21898 | 2079 ft | 145 kts | 81° |
| 2026-05-04 17:59 | 41.25260 | 69.24523 | 1662 ft | 142 kts | 80° |
| 2026-05-04 18:00 | 41.25400 | 69.25807 | 1487 ft | 140 kts | 80° |
| 2026-05-04 18:00 | 41.25532 | 69.26981 | 1423 ft | 100 kts | 84° |
| 2026-05-04 18:00 | 41.25593 | 69.27543 | 1423 ft | 23 kts | 82° |
| 2026-05-04 18:00 | 41.25609 | 69.27673 | 1423 ft | 10 kts | 64° |
| 2026-05-04 18:01 | 41.25667 | 69.27701 | 1423 ft | 9 kts | 336° |
| 2026-05-04 18:01 | 41.25718 | 69.27653 | 1423 ft | 8 kts | 322° |
| 2026-05-04 18:01 | 41.25761 | 69.27606 | 1423 ft | 7 kts | 319° |
| 2026-05-04 18:02 | 41.25817 | 69.27531 | 1423 ft | 6 kts | 314° |
| 2026-05-04 18:02 | 41.25850 | 69.27489 | 1423 ft | 9 kts | 316° |
| 2026-05-04 18:02 | 41.25916 | 69.27411 | 1423 ft | 14 kts | 319° |
| 2026-05-04 18:02 | 41.25984 | 69.27333 | 1423 ft | 10 kts | 319° |
| 2026-05-04 18:03 | 41.26022 | 69.27290 | 1423 ft | 5 kts | 319° |
| 2026-05-04 18:03 | 41.26054 | 69.27251 | 1423 ft | 8 kts | 318° |
| 2026-05-04 18:03 | 41.26108 | 69.27188 | 1423 ft | 8 kts | 315° |
| 2026-05-04 18:03 | 41.26118 | 69.27099 | 1423 ft | 12 kts | 246° |
| 2026-05-04 18:04 | 41.26083 | 69.26992 | 1423 ft | 12 kts | 246° |
| 2026-05-04 18:04 | 41.26048 | 69.26889 | 1423 ft | 12 kts | 246° |
| 2026-05-04 18:04 | 41.26073 | 69.26816 | 1423 ft | 5 kts | 327° |
| 2026-05-04 18:05 | 41.26101 | 69.26791 | 1423 ft | 4 kts | 327° |
| 2026-05-04 18:05 | 41.26126 | 69.26770 | 1423 ft | 4 kts | 327° |
| 2026-05-04 18:05 | 41.26139 | 69.26760 | 1423 ft | 0 kts | 328° |
| 2026-05-04 18:05 | 41.26139 | 69.26759 | 1423 ft | 0 kts | 328° |